AZ875 / EI-DTN 7700 Squawk Report (19th of July, 2018)

Aircraft A320 Reg No. EI-DTN Age 9 years old
Model A320 Jet engines 2 First flight 01-12-09
Registered 25-03-10 Rollout 11-09 Delivered 25-03-10
Construction No. 4143 Line No. N/A Series 216
ADSHEX 4CA82E Airline name Alitalia Owner Aercap Holdings N.V.
Airfield based Rome-Fiumicino~Lazio~I First tracked 2011-04-01 15:13:04

Flight history for EI-DTN

Route Flight No Date Playback
Fiumicino (FCO) - Cairo Intl (CAI) AZ896 2018-12-18 14:30:00
Venezia Tessera (VCE) - Fiumicino (FCO) AZ1464 2018-12-18 11:42:00
Fiumicino (FCO) - Venezia Tessera (VCE) AZ1471 2018-12-18 08:29:00
Ben Gurion (TLV) - Fiumicino (FCO) AZ813 2018-12-17 19:25:00
Fiumicino (FCO) - Ben Gurion (TLV) AZ808 2018-12-17 15:46:00
Genova Sestri (GOA) - Fiumicino (FCO) AZ1388 2018-12-17 09:55:00
Fiumicino (FCO) - Genova Sestri (GOA) AZ1397 2018-12-17 08:58:00
Heathrow (LHR) - Fiumicino (FCO) AZ209 2018-12-16 22:05:00
Linate (LIN) - Heathrow (LHR) AZ238 2018-12-16 19:37:00
Catania Fontanarossa (CTA) - Linate (LIN) AZ1714 2018-12-16 16:14:00
Linate (LIN) - Catania Fontanarossa (CTA) AZ1713 2018-12-16 10:08:00
Heathrow (LHR) - Linate (LIN) AZ247 2018-12-16 08:36:00
Fiumicino (FCO) - Heathrow (LHR) AZ208 2018-12-15 20:53:00
Barajas (MAD) - Fiumicino (FCO) AZ61 2018-12-15 12:58:00
Fiumicino (FCO) - Barajas (MAD) AZ58 2018-12-15 10:59:00
Cairo Intl (CAI) - Fiumicino (FCO) AZ895 2018-12-15 07:23:00
Fiumicino (FCO) - Cairo Intl (CAI) AZ894 2018-12-15 00:33:00
Eleftherios Venizelos Intl (ATH) - Fiumicino (FCO) AZ721 2018-12-14 19:38:00
Fiumicino (FCO) - Eleftherios Venizelos Intl (ATH) AZ718 2018-12-14 17:34:00
Tegel (TXL) - Fiumicino (FCO) AZ423 2018-12-14 13:45:00
Time Lat Lon Altitude Heading Speed Vertical Rate
2018-07-19 17:46:37 GMT 39.253998 9.051392 0 317 60 0
2018-07-19 17:46:28 GMT 39.251778 9.053955 0 317 84 0
2018-07-19 17:46:17 GMT 39.248199 9.058168 0 319 120 64
2018-07-19 17:46:03 GMT 39.240696 9.066772 100 319 127 -640
2018-07-19 17:45:53 GMT 39.237671 9.070289 175 319 126 -576
2018-07-19 17:45:43 GMT 39.233482 9.075134 275 318 126 -896
2018-07-19 17:45:32 GMT 39.228745 9.080678 400 318 125 -704
2018-07-19 17:45:23 GMT 39.224396 9.085753 500 318 127 -640
2018-07-19 17:45:11 GMT 39.219654 9.091370 625 318 128 -768
2018-07-19 17:45:01 GMT 39.215233 9.096680 725 317 130 -640
2018-07-19 17:44:51 GMT 39.210342 9.102531 825 317 134 -704
2018-07-19 17:44:40 GMT 39.205902 9.108084 950 315 136 -384
2018-07-19 17:44:31 GMT 39.201736 9.113935 1,000 309 133 0
2018-07-19 17:44:20 GMT 39.197983 9.120802 1,025 301 129 -192
2018-07-19 17:44:10 GMT 39.195633 9.128113 1,125 282 129 -1024
2018-07-19 17:43:59 GMT 39.194458 9.137102 1,325 280 132 -896
2018-07-19 17:43:49 GMT 39.193268 9.146596 1,525 279 134 -1088
2018-07-19 17:43:35 GMT 39.192329 9.155029 1,675 278 140 -576
2018-07-19 17:43:25 GMT 39.191490 9.164124 1,800 274 148 -1024
2018-07-19 17:43:15 GMT 39.192051 9.173157 1,975 250 155 -832
2018-07-19 17:43:04 GMT 39.196106 9.181227 2,050 220 163 -256
2018-07-19 17:42:54 GMT 39.203293 9.185764 2,175 190 173 -1216
2018-07-19 17:42:40 GMT 39.214462 9.183973 2,375 158 186 -896
2018-07-19 17:42:33 GMT 39.219421 9.179932 2,475 138 190 -768
2018-07-19 17:42:23 GMT 39.227142 9.170718 2,625 136 194 -960
2018-07-19 17:42:13 GMT 39.233250 9.163391 2,725 137 199 0
2018-07-19 17:42:02 GMT 39.240601 9.154537 2,675 136 216 -640
2018-07-19 17:41:50 GMT 39.249390 9.143849 2,775 136 222 -384
2018-07-19 17:41:41 GMT 39.256153 9.135437 2,825 135 229 -512
2018-07-19 17:41:32 GMT 39.263672 9.125996 2,925 135 234 -640
2018-07-19 17:41:21 GMT 39.272121 9.115234 3,050 135 241 -832
2018-07-19 17:41:11 GMT 39.279987 9.105286 3,175 135 246 -704
2018-07-19 17:41:01 GMT 39.288647 9.094360 3,275 135 251 -768
2018-07-19 17:40:51 GMT 39.298050 9.082703 3,400 136 258 -640
2018-07-19 17:40:40 GMT 39.306892 9.071655 3,500 135 265 -640
2018-07-19 17:40:29 GMT 39.316250 9.059998 3,600 135 271 -640
2018-07-19 17:40:19 GMT 39.325516 9.048523 3,725 136 280 -768
2018-07-19 17:40:09 GMT 39.335587 9.036135 3,925 136 283 -1728
2018-07-19 17:39:56 GMT 39.347076 9.022223 4,225 136 285 -1344
2018-07-19 17:39:46 GMT 39.357101 9.009983 4,400 136 292 -1024
2018-07-19 17:39:36 GMT 39.367447 8.997444 4,600 136 296 -1664
2018-07-19 17:39:25 GMT 39.377979 8.984741 4,900 136 297 -1472
2018-07-19 17:39:15 GMT 39.388081 8.972595 5,125 136 299 -1536
2018-07-19 17:39:05 GMT 39.398743 8.959595 5,400 136 301 -1792
2018-07-19 17:38:54 GMT 39.409286 8.946692 5,700 136 300 -2112
2018-07-19 17:38:51 GMT 39.413681 8.941259 5,850 136 299 -2176
2018-07-19 17:38:44 GMT 39.419815 8.933795 6,075 136 298 -2176
2018-07-19 17:38:34 GMT 39.430630 8.920288 6,425 135 297 -1792
2018-07-19 17:38:22 GMT 39.441055 8.907166 6,700 135 297 -1536
2018-07-19 17:38:13 GMT 39.450989 8.894746 6,900 135 299 -896
2018-07-19 17:38:02 GMT 39.461655 8.881372 7,025 135 301 -768
2018-07-19 17:37:51 GMT 39.472294 8.868103 7,125 136 303 -512
2018-07-19 17:37:41 GMT 39.482628 8.855408 7,200 136 303 -320
2018-07-19 17:37:31 GMT 39.492729 8.843018 7,225 136 292 -64
2018-07-19 17:37:21 GMT 39.503265 8.830142 7,250 136 298 -384
2018-07-19 17:37:10 GMT 39.513885 8.817066 7,325 136 308 -448
2018-07-19 17:37:00 GMT 39.525085 8.803284 7,400 136 319 -448
2018-07-19 17:36:49 GMT 39.536118 8.789734 7,475 136 328 -448
2018-07-19 17:36:39 GMT 39.547710 8.775452 7,550 136 339 -576
2018-07-19 17:36:29 GMT 39.559662 8.760582 7,650 136 349 -960
2018-07-19 17:36:18 GMT 39.571609 8.745714 7,850 136 358 -1600
2018-07-19 17:36:08 GMT 39.584564 8.729533 8,150 136 364 -1728
2018-07-19 17:35:57 GMT 39.598434 8.712337 8,475 136 365 -2432
2018-07-19 17:35:45 GMT 39.612137 8.695313 8,850 136 370 -1856
2018-07-19 17:35:35 GMT 39.625080 8.679199 9,200 135 374 -2304
2018-07-19 17:35:25 GMT 39.641602 8.658242 9,575 135 383 -2048
2018-07-19 17:35:12 GMT 39.654190 8.642001 10,025 134 387 -2624
2018-07-19 17:35:01 GMT 39.667625 8.624390 10,425 134 400 -2688
2018-07-19 17:34:51 GMT 39.681034 8.606812 10,950 135 405 -3904
2018-07-19 17:34:40 GMT 39.695618 8.588920 11,650 138 407 -4544
2018-07-19 17:34:31 GMT 39.710449 8.572262 12,400 140 406 -4416
2018-07-19 17:34:20 GMT 39.725586 8.555969 13,075 140 409 -3648
2018-07-19 17:34:10 GMT 39.740437 8.540100 13,650 140 415 -3904
2018-07-19 17:34:00 GMT 39.755657 8.523804 14,275 140 419 -3776
2018-07-19 17:33:49 GMT 39.771484 8.506897 14,825 140 427 -2688
2018-07-19 17:33:38 GMT 39.787628 8.489685 15,275 140 431 -3264
2018-07-19 17:33:28 GMT 39.803650 8.472549 15,950 140 427 -4480
2018-07-19 17:33:16 GMT 39.822235 8.452487 16,800 140 430 -4352
2018-07-19 17:33:06 GMT 39.837021 8.436485 17,500 140 431 -5376
2018-07-19 17:32:56 GMT 39.852951 8.419289 18,425 140 428 -5312
2018-07-19 17:32:45 GMT 39.869293 8.401672 19,200 140 431 -4096
2018-07-19 17:32:34 GMT 39.886185 8.383524 19,925 140 436 -4352
2018-07-19 17:32:24 GMT 39.901932 8.366746 20,650 140 439 -4672
2018-07-19 17:32:14 GMT 39.918545 8.348999 21,400 140 443 -4224
2018-07-19 17:32:03 GMT 39.935349 8.330945 22,100 140 448 -4416
2018-07-19 17:31:53 GMT 39.951969 8.313155 22,825 140 454 -4352
2018-07-19 17:31:42 GMT 39.969360 8.294617 23,550 140 460 -4160
2018-07-19 17:31:31 GMT 39.987114 8.275577 24,225 140 469 -3776
2018-07-19 17:31:22 GMT 40.003967 8.257412 24,725 140 483 -2112
2018-07-19 17:31:11 GMT 40.021751 8.238310 25,075 140 493 -3072
2018-07-19 17:31:00 GMT 40.041138 8.217590 25,800 140 492 -5312
2018-07-19 17:30:51 GMT 40.059311 8.197998 26,675 140 489 -5440
2018-07-19 17:30:39 GMT 40.078079 8.177823 27,750 140 484 -6464
2018-07-19 17:30:28 GMT 40.097534 8.156677 28,800 139 488 -4416
2018-07-19 17:30:19 GMT 40.112991 8.139371 29,325 138 497 -2432
2018-07-19 17:30:16 GMT 40.117630 8.134033 29,400 137 503 -1792
2018-07-19 17:30:09 GMT 40.130497 8.117835 29,550 133 519 -1280
2018-07-19 17:30:05 GMT 40.136314 8.109783 29,625 132 523 -1664
2018-07-19 17:29:58 GMT 40.147247 8.093079 29,875 127 531 -3392
2018-07-19 17:29:54 GMT 40.153290 8.082581 30,125 125 534 -4032
2018-07-19 17:29:48 GMT 40.162079 8.065369 30,600 121 535 -4864
2018-07-19 17:29:43 GMT 40.167690 8.052979 30,925 119 536 -4608
2018-07-19 17:29:36 GMT 40.176491 8.030506 31,450 114 537 -4096
2018-07-19 17:29:33 GMT 40.178818 8.023765 31,600 113 538 -4224
2018-07-19 17:29:25 GMT 40.186218 7.998671 32,175 108 539 -4480
2018-07-19 17:29:22 GMT 40.188171 7.990967 32,350 107 539 -4544
2018-07-19 17:29:15 GMT 40.193157 7.966524 32,950 102 538 -4800
2018-07-19 17:29:12 GMT 40.194489 7.958252 33,150 100 537 -4992
2018-07-19 17:29:04 GMT 40.197556 7.931885 33,750 95 535 -4160
2018-07-19 17:29:01 GMT 40.198181 7.923639 33,925 94 535 -3968
2018-07-19 17:28:54 GMT 40.199116 7.898358 34,400 90 536 -3584
2018-07-19 17:28:51 GMT 40.199020 7.889494 34,550 88 535 -3776
2018-07-19 17:28:43 GMT 40.197693 7.862976 35,075 83 534 -3712
2018-07-19 17:28:40 GMT 40.196915 7.854614 35,225 82 533 -3200
2018-07-19 17:28:33 GMT 40.194088 7.832940 35,525 78 533 -2368
2018-07-19 17:28:29 GMT 40.192039 7.820830 35,675 76 533 -2048
2018-07-19 17:28:19 GMT 40.184917 7.788870 35,925 70 532 -576
2018-07-19 17:28:12 GMT 40.178585 7.767084 35,975 66 532 -192
2018-07-19 17:28:08 GMT 40.174805 7.755981 36,000 64 531 -64
2018-07-19 17:28:02 GMT 40.168121 7.738342 36,000 61 530 0
2018-07-19 17:27:57 GMT 40.162292 7.724387 36,000 61 530 0
2018-07-19 17:27:50 GMT 40.154160 7.704834 36,000 61 530 -64
2018-07-19 17:27:46 GMT 40.149948 7.694763 36,000 61 530 -64
2018-07-19 17:27:41 GMT 40.144089 7.680629 36,000 61 530 0
2018-07-19 17:27:35 GMT 40.136734 7.662964 36,000 61 531 -64
2018-07-19 17:27:31 GMT 40.131939 7.651416 36,025 61 531 0
2018-07-19 17:27:24 GMT 40.124359 7.633240 36,025 61 531 0
2018-07-19 17:27:20 GMT 40.118767 7.619892 36,025 61 532 0
2018-07-19 17:27:14 GMT 40.112274 7.604248 36,025 61 532 64
2018-07-19 17:27:09 GMT 40.105869 7.588931 36,000 61 532 64
2018-07-19 17:27:03 GMT 40.099354 7.573325 36,000 61 532 64
2018-07-19 17:26:59 GMT 40.093964 7.560425 36,000 61 532 64
2018-07-19 17:26:53 GMT 40.087250 7.544424 36,000 61 533 0
2018-07-19 17:26:49 GMT 40.081467 7.530518 36,000 61 533 0
2018-07-19 17:26:42 GMT 40.074783 7.514587 36,000 61 534 0
2018-07-19 17:26:38 GMT 40.069656 7.502319 36,000 61 534 0
2018-07-19 17:26:32 GMT 40.062607 7.485535 36,000 61 534 0
2018-07-19 17:26:28 GMT 40.057175 7.472638 36,000 61 534 -64
2018-07-19 17:26:21 GMT 40.049820 7.455160 36,000 61 534 -64
2018-07-19 17:26:16 GMT 40.043152 7.439331 36,000 61 534 -64
2018-07-19 17:26:10 GMT 40.036972 7.424500 36,025 61 534 -64
2018-07-19 17:26:05 GMT 40.030060 7.408081 36,025 61 534 -64
2018-07-19 17:26:00 GMT 40.024475 7.394836 36,025 61 534 -64
2018-07-19 17:25:56 GMT 40.019051 7.382001 36,025 61 534 0
2018-07-19 17:25:49 GMT 40.011230 7.363711 36,025 60 533 0
2018-07-19 17:25:45 GMT 40.006203 7.352600 36,025 58 532 0
2018-07-19 17:25:38 GMT 39.997650 7.334839 36,025 55 530 64
2018-07-19 17:25:34 GMT 39.991470 7.322998 36,000 54 530 64
2018-07-19 17:25:27 GMT 39.982273 7.306595 36,000 52 529 64
2018-07-19 17:25:24 GMT 39.976959 7.297729 36,000 51 528 64
2018-07-19 17:25:14 GMT 39.961029 7.273193 36,000 47 525 0
2018-07-19 17:25:04 GMT 39.943775 7.249791 36,000 44 522 0
2018-07-19 17:24:53 GMT 39.924549 7.226757 36,000 40 519 0
2018-07-19 17:24:42 GMT 39.905869 7.205837 36,000 40 519 0
2018-07-19 17:24:32 GMT 39.886780 7.184521 36,000 40 519 0
2018-07-19 17:24:19 GMT 39.863239 7.158325 36,000 40 519 -64
2018-07-19 17:24:10 GMT 39.846268 7.139441 36,000 40 518 0
2018-07-19 17:24:02 GMT 39.830093 7.121460 36,000 40 518 0
2018-07-19 17:23:59 GMT 39.826183 7.117188 36,000 40 518 0
2018-07-19 17:23:51 GMT 39.812080 7.101440 36,000 40 518 0
2018-07-19 17:23:47 GMT 39.805470 7.094116 36,000 40 518 0
2018-07-19 17:23:40 GMT 39.792892 7.080091 36,000 40 518 0
2018-07-19 17:23:36 GMT 39.785522 7.071911 36,000 40 519 0
2018-07-19 17:23:30 GMT 39.774536 7.059731 36,000 40 519 0
2018-07-19 17:23:25 GMT 39.764408 7.048462 36,000 40 518 0
2018-07-19 17:23:19 GMT 39.753841 7.036743 36,000 40 519 0
2018-07-19 17:23:15 GMT 39.746441 7.028503 36,000 40 519 0
2018-07-19 17:23:08 GMT 39.734436 7.015188 36,000 40 519 0
2018-07-19 17:23:05 GMT 39.728050 7.008057 36,000 40 519 0
2018-07-19 17:22:58 GMT 39.714890 6.993514 36,000 40 519 0
2018-07-19 17:22:54 GMT 39.708481 6.986409 36,000 40 519 0
2018-07-19 17:22:47 GMT 39.696026 6.972595 36,000 40 519 0
2018-07-19 17:22:44 GMT 39.689484 6.965332 36,000 40 519 0
2018-07-19 17:22:37 GMT 39.676208 6.950644 36,000 40 519 0
2018-07-19 17:22:33 GMT 39.669163 6.942871 36,000 40 519 -64
2018-07-19 17:22:26 GMT 39.656937 6.929388 36,000 40 519 -64
2018-07-19 17:22:22 GMT 39.650482 6.922282 36,000 40 519 -64
2018-07-19 17:22:16 GMT 39.638031 6.908549 36,000 40 519 0
2018-07-19 17:22:12 GMT 39.631531 6.901325 36,000 40 519 0
2018-07-19 17:22:06 GMT 39.619305 6.887878 36,000 40 519 0
2018-07-19 17:22:00 GMT 39.609100 6.876605 36,000 40 519 0
2018-07-19 17:21:54 GMT 39.597565 6.863892 36,000 40 519 0
2018-07-19 17:21:44 GMT 39.580307 6.844841 36,000 40 519 0
2018-07-19 17:21:34 GMT 39.561951 6.824600 36,000 40 518 0
2018-07-19 17:21:27 GMT 39.548309 6.809613 36,000 40 518 0
2018-07-19 17:21:24 GMT 39.543457 6.804299 36,000 40 518 0
2018-07-19 17:21:19 GMT 39.534161 6.794067 36,000 40 518 0
2018-07-19 17:21:14 GMT 39.524246 6.783203 36,000 40 519 0
2018-07-19 17:21:08 GMT 39.513538 6.771423 36,000 40 519 0
2018-07-19 17:21:03 GMT 39.505020 6.762024 36,000 40 519 -64
2018-07-19 17:20:56 GMT 39.493057 6.748949 36,000 40 519 -64
2018-07-19 17:20:53 GMT 39.486446 6.741699 36,000 40 518 -64
2018-07-19 17:20:46 GMT 39.474335 6.728469 36,025 40 518 0
2018-07-19 17:20:43 GMT 39.467468 6.720946 36,000 40 518 0
2018-07-19 17:20:35 GMT 39.454418 6.706604 36,000 40 519 0
2018-07-19 17:20:32 GMT 39.447968 6.699511 36,000 40 518 0
2018-07-19 17:20:21 GMT 39.427746 6.677307 36,025 40 519 0
2018-07-19 17:20:11 GMT 39.409401 6.657227 36,000 40 519 0
2018-07-19 17:20:00 GMT 39.389420 6.635384 36,000 40 519 0
2018-07-19 17:19:50 GMT 39.370926 6.615143 36,000 40 519 64
2018-07-19 17:19:39 GMT 39.351723 6.594116 36,000 40 519 0
2018-07-19 17:19:29 GMT 39.332775 6.573425 36,000 40 520 0
2018-07-19 17:19:19 GMT 39.313660 6.552628 36,000 40 520 0
2018-07-19 17:19:08 GMT 39.295166 6.532447 36,000 40 520 0
2018-07-19 17:18:58 GMT 39.276031 6.511609 36,000 40 519 0
2018-07-19 17:18:48 GMT 39.256618 6.490479 36,000 40 519 0
2018-07-19 17:18:37 GMT 39.236252 6.468320 35,975 40 518 0
2018-07-19 17:18:26 GMT 39.216751 6.447124 35,975 40 518 0
2018-07-19 17:18:15 GMT 39.197403 6.426086 35,975 40 518 0
2018-07-19 17:18:05 GMT 39.178875 6.405945 35,975 40 518 0
2018-07-19 17:17:55 GMT 39.159740 6.385132 35,975 40 518 -64
2018-07-19 17:17:45 GMT 39.140854 6.364726 36,000 40 517 -64
2018-07-19 17:17:35 GMT 39.121719 6.344067 36,000 40 517 -64
2018-07-19 17:17:24 GMT 39.103455 6.324304 36,000 40 517 -64
2018-07-19 17:17:14 GMT 39.084236 6.303528 36,000 40 518 -64
2018-07-19 17:17:03 GMT 39.065010 6.282715 36,025 40 518 -64
2018-07-19 17:16:53 GMT 39.046062 6.262207 36,025 40 518 0
2018-07-19 17:16:42 GMT 39.026733 6.241249 36,025 40 518 64
2018-07-19 17:16:32 GMT 39.008194 6.220113 36,025 43 522 0
2018-07-19 17:16:21 GMT 38.990479 6.197327 36,000 47 524 0
2018-07-19 17:16:11 GMT 38.973907 6.173096 36,000 50 527 0
2018-07-19 17:16:01 GMT 38.958172 6.147034 36,000 54 529 0
2018-07-19 17:15:50 GMT 38.943787 6.120161 36,000 57 531 64
2018-07-19 17:15:41 GMT 38.930695 6.092695 36,000 60 533 0
2018-07-19 17:15:30 GMT 38.918106 6.064513 36,000 60 533 0
2018-07-19 17:15:19 GMT 38.905334 6.035645 36,000 60 533 0
2018-07-19 17:15:08 GMT 38.891830 6.005282 36,000 60 533 0
2018-07-19 17:14:58 GMT 38.879471 5.977398 36,000 60 533 0
2018-07-19 17:14:48 GMT 38.866745 5.948679 36,000 60 533 0
2018-07-19 17:14:36 GMT 38.852371 5.916317 36,000 60 533 0
2018-07-19 17:14:26 GMT 38.840881 5.890463 36,000 60 532 0
2018-07-19 17:14:15 GMT 38.826279 5.857743 36,000 60 532 0
2018-07-19 17:14:05 GMT 38.815071 5.832642 36,000 60 532 0
2018-07-19 17:13:45 GMT 38.790768 5.778076 36,000 60 532 -64
2018-07-19 17:13:32 GMT 38.773911 5.740476 36,000 60 532 -64
2018-07-19 17:13:20 GMT 38.760040 5.709428 36,000 60 532 0
2018-07-19 17:13:13 GMT 38.751152 5.689575 36,000 60 533 0
2018-07-19 17:13:07 GMT 38.741982 5.669128 36,000 60 533 0
2018-07-19 17:13:01 GMT 38.736073 5.655945 36,000 60 533 0
2018-07-19 17:12:52 GMT 38.724930 5.631150 36,000 60 533 0
2018-07-19 17:12:44 GMT 38.715134 5.609297 36,000 60 533 0
2018-07-19 17:12:41 GMT 38.711445 5.601074 36,000 60 533 0
2018-07-19 17:12:32 GMT 38.700348 5.576397 36,000 60 533 0
2018-07-19 17:12:22 GMT 38.688675 5.550365 36,000 60 533 0
2018-07-19 17:12:19 GMT 38.684769 5.541748 36,000 60 533 64
2018-07-19 17:12:07 GMT 38.670246 5.509399 36,000 60 533 64
2018-07-19 17:12:00 GMT 38.661209 5.489343 36,000 60 533 0
2018-07-19 17:11:15 GMT 38.606003 5.367004 36,000 60 533 0
2018-07-19 17:11:07 GMT 38.596786 5.346680 36,000 60 532 0
2018-07-19 17:11:00 GMT 38.587875 5.326936 36,000 60 532 0
2018-07-19 17:10:54 GMT 38.580322 5.310278 36,000 60 532 0
2018-07-19 17:10:45 GMT 38.569412 5.286194 36,000 60 532 0
2018-07-19 17:10:34 GMT 38.555649 5.255883 36,000 60 532 0
2018-07-19 17:10:28 GMT 38.548462 5.240120 36,000 59 531 0
2018-07-19 17:10:24 GMT 38.543472 5.229074 36,000 60 532 0
2018-07-19 17:10:19 GMT 38.536919 5.214661 36,000 59 531 0
2018-07-19 17:10:14 GMT 38.530426 5.200414 36,000 59 531 0
2018-07-19 17:10:11 GMT 38.526535 5.191876 36,000 59 531 0
2018-07-19 17:10:03 GMT 38.517834 5.172729 36,000 59 532 -64
2018-07-19 17:09:57 GMT 38.509361 5.154114 36,000 59 531 0
2018-07-19 17:09:53 GMT 38.504986 5.144470 36,000 59 531 0
2018-07-19 17:09:50 GMT 38.500610 5.134888 36,000 59 531 64
2018-07-19 17:09:42 GMT 38.491837 5.115569 36,000 59 531 0
2018-07-19 17:09:32 GMT 38.479294 5.088103 36,000 59 531 0
2018-07-19 17:09:22 GMT 38.466431 5.059921 35,975 59 531 0
2018-07-19 17:09:12 GMT 38.453751 5.032097 35,975 59 531 0
2018-07-19 17:09:03 GMT 38.443630 5.010010 35,975 59 531 -64
2018-07-19 17:08:59 GMT 38.438229 4.998169 35,975 59 531 0
2018-07-19 17:08:55 GMT 38.433247 4.987366 35,975 59 531 0
2018-07-19 17:08:51 GMT 38.427753 4.975403 36,000 59 531 0
2018-07-19 17:08:48 GMT 38.424225 4.967671 36,000 59 530 0
2018-07-19 17:08:39 GMT 38.413605 4.944580 36,000 59 531 0
2018-07-19 17:08:33 GMT 38.405598 4.927129 36,000 59 531 -64
2018-07-19 17:08:30 GMT 38.401886 4.918953 36,000 59 531 -64
2018-07-19 17:08:20 GMT 38.389618 4.892247 36,000 59 530 -64
2018-07-19 17:08:17 GMT 38.385998 4.884438 36,000 59 530 0
2018-07-19 17:08:13 GMT 38.380783 4.873034 36,000 59 530 0
2018-07-19 17:08:08 GMT 38.374786 4.860048 36,000 59 530 0
2018-07-19 17:08:04 GMT 38.368961 4.847359 36,000 59 531 0
2018-07-19 17:07:58 GMT 38.362610 4.833634 36,000 59 531 64
2018-07-19 17:07:51 GMT 38.352905 4.812479 36,000 59 531 64
2018-07-19 17:07:46 GMT 38.347778 4.801318 36,000 59 531 0
2018-07-19 17:07:36 GMT 38.335007 4.773560 36,000 59 531 0
2018-07-19 17:07:27 GMT 38.323849 4.749378 36,000 59 532 -64
2018-07-19 17:07:24 GMT 38.320084 4.741185 36,000 59 531 0
2018-07-19 17:07:18 GMT 38.312943 4.725582 36,000 59 531 0
2018-07-19 17:07:15 GMT 38.308998 4.717016 36,000 59 531 64
2018-07-19 17:07:11 GMT 38.304207 4.706447 36,000 59 531 0
2018-07-19 17:07:08 GMT 38.300629 4.698701 36,000 59 532 0
2018-07-19 17:07:02 GMT 38.293213 4.682689 36,000 59 532 -64
2018-07-19 17:06:58 GMT 38.288177 4.671761 36,000 59 532 -64
2018-07-19 17:06:55 GMT 38.284283 4.663398 36,000 59 532 -64
2018-07-19 17:06:49 GMT 38.276974 4.647515 36,000 59 532 -64
2018-07-19 17:06:39 GMT 38.264774 4.621184 36,000 59 532 0
2018-07-19 17:06:31 GMT 38.254719 4.599510 36,000 59 532 0
2018-07-19 17:05:47 GMT 38.198719 4.478959 36,000 59 534 64
2018-07-19 17:05:40 GMT 38.188755 4.457524 36,000 59 534 64
2018-07-19 17:05:37 GMT 38.186241 4.452150 36,000 59 534 0
2018-07-19 17:05:26 GMT 38.172230 4.421997 35,975 59 535 0
2018-07-19 17:05:16 GMT 38.159473 4.394651 36,000 59 534 0
2018-07-19 17:05:05 GMT 38.145721 4.365371 36,000 59 534 0
2018-07-19 17:05:01 GMT 38.140900 4.355064 36,000 59 534 0
2018-07-19 17:04:52 GMT 38.129608 4.330892 36,000 59 534 0
2018-07-19 17:04:43 GMT 38.118881 4.308074 36,000 59 534 0
2018-07-19 17:04:40 GMT 38.114960 4.299628 36,000 59 534 0
2018-07-19 17:04:35 GMT 38.108360 4.285564 36,000 59 534 0
2018-07-19 17:04:22 GMT 38.091980 4.250482 36,000 59 535 0
2018-07-19 17:04:18 GMT 38.087585 4.241073 36,000 59 535 0
2018-07-19 17:04:14 GMT 38.081772 4.228568 36,000 59 535 0
2018-07-19 17:04:11 GMT 38.078007 4.220541 36,000 59 535 0
2018-07-19 17:04:07 GMT 38.073586 4.211167 36,000 59 535 0
2018-07-19 17:03:54 GMT 38.056229 4.174045 36,000 59 535 0
2018-07-19 17:03:42 GMT 38.041809 4.143307 36,000 59 536 0
2018-07-19 17:03:34 GMT 38.030571 4.119455 36,000 59 536 -64
2018-07-19 17:03:28 GMT 38.022751 4.102796 36,000 59 536 0
2018-07-19 17:03:21 GMT 38.013474 4.083057 36,000 59 536 0
2018-07-19 17:03:17 GMT 38.009857 4.075390 36,000 59 536 0
2018-07-19 17:03:11 GMT 38.002316 4.059389 36,000 59 536 -64
2018-07-19 17:03:05 GMT 37.994633 4.043088 36,000 59 536 0
2018-07-19 17:02:59 GMT 37.987091 4.027027 36,000 59 536 0
2018-07-19 17:02:56 GMT 37.983215 4.018775 36,000 59 536 0
2018-07-19 17:02:49 GMT 37.974709 4.000755 36,000 59 536 0
2018-07-19 17:02:45 GMT 37.969448 3.989590 36,000 59 536 -64
2018-07-19 17:02:42 GMT 37.964279 3.978663 36,000 59 536 -64
2018-07-19 17:02:38 GMT 37.960327 3.970272 36,000 59 536 -64
2018-07-19 17:02:33 GMT 37.952179 3.953033 36,000 59 536 0
2018-07-19 17:02:28 GMT 37.946915 3.941930 36,000 59 536 0
2018-07-19 17:02:22 GMT 37.937622 3.922294 36,000 59 536 0
2018-07-19 17:02:15 GMT 37.931370 3.909103 36,000 59 537 0
2018-07-19 17:02:12 GMT 37.926388 3.898654 36,000 59 537 0
2018-07-19 17:02:04 GMT 37.917297 3.879518 36,000 59 537 0
2018-07-19 17:01:59 GMT 37.909744 3.863506 36,000 59 537 0
2018-07-19 17:01:51 GMT 37.899445 3.841825 36,000 59 538 0
2018-07-19 17:01:46 GMT 37.892685 3.827601 36,000 59 538 0
2018-07-19 17:01:39 GMT 37.884491 3.810285 36,000 59 538 0
2018-07-19 17:01:02 GMT 37.836773 3.709916 36,000 58 537 -64
2018-07-19 17:00:59 GMT 37.832886 3.701750 36,000 58 537 -64
2018-07-19 17:00:25 GMT 37.790268 3.612352 36,000 58 538 0
2018-07-19 17:00:17 GMT 37.779423 3.589663 36,000 58 537 0
2018-07-19 16:59:55 GMT 37.751209 3.530731 36,000 58 538 0
2018-07-19 16:59:51 GMT 37.746044 3.519924 36,000 58 538 0
2018-07-19 16:59:47 GMT 37.741062 3.509475 36,000 58 538 0
2018-07-19 16:59:29 GMT 37.718300 3.462067 36,000 58 538 0
2018-07-19 16:59:22 GMT 37.709015 3.442694 36,000 58 537 0
2018-07-19 16:59:14 GMT 37.699036 3.421949 36,000 58 537 0
2018-07-19 16:59:03 GMT 37.684410 3.391611 36,000 58 537 0
2018-07-19 16:58:53 GMT 37.671467 3.364862 36,000 58 537 0
2018-07-19 16:58:17 GMT 37.624775 3.267895 36,000 58 537 0
2018-07-19 16:58:11 GMT 37.616814 3.251416 36,000 58 537 0
2018-07-19 16:58:02 GMT 37.605103 3.227175 36,000 58 537 0
2018-07-19 16:57:54 GMT 37.594803 3.205962 37,200 58 537 0
2018-07-19 16:57:28 GMT 37.562027 3.138116 36,000 58 536 64
2018-07-19 16:57:02 GMT 37.526459 3.064827 35,975 58 530 0
2018-07-19 16:56:22 GMT 37.476837 2.962744 36,000 58 529 0
2018-07-19 16:56:11 GMT 37.462215 2.932812 36,000 58 530 0
2018-07-19 16:56:04 GMT 37.452858 2.913706 36,000 58 530 0
2018-07-19 16:55:51 GMT 37.435822 2.878827 36,000 58 529 -64
2018-07-19 16:55:40 GMT 37.416546 2.839548 36,000 58 530 0
2018-07-19 16:55:32 GMT 37.411659 2.829577 36,025 58 530 0
2018-07-19 16:55:29 GMT 37.409100 2.824322 36,025 58 530 -64
2018-07-19 16:55:12 GMT 37.386333 2.777690 36,000 58 530 0
2018-07-19 16:55:08 GMT 37.381123 2.767062 36,000 58 530 0
2018-07-19 16:54:41 GMT 37.347557 2.698636 36,000 58 530 -64
2018-07-19 16:54:30 GMT 37.333466 2.669853 36,000 58 528 64
2018-07-19 16:54:21 GMT 37.321766 2.646093 36,000 58 528 0
2018-07-19 16:53:30 GMT 37.246540 2.493538 36,000 58 528 64
2018-07-19 16:53:05 GMT 37.223587 2.447205 36,000 58 528 0
2018-07-19 16:53:01 GMT 37.218281 2.436517 36,000 58 528 -64
2018-07-19 16:52:12 GMT 37.154984 2.309057 36,000 58 528 64
2018-07-19 16:52:06 GMT 37.147568 2.294214 36,000 58 528 0
2018-07-19 16:51:57 GMT 37.134338 2.267566 36,000 58 528 0
2018-07-19 16:51:48 GMT 37.123501 2.245868 36,000 58 528 0
2018-07-19 16:51:11 GMT 37.070114 2.138711 36,000 58 528 0
2018-07-19 16:51:08 GMT 37.065914 2.130273 36,000 58 527 0
2018-07-19 16:50:19 GMT 37.001766 2.002139 36,000 57 524 -1088
2018-07-19 16:45:41 GMT 36.646992 1.302231 37,325 57 522 -1024
We lost coverage of the aircraft here for a total of 12 minutes
2018-07-19 16:34:01 GMT 35.718136 -0.464348 37,000 56 522 0
2018-07-19 16:33:50 GMT 35.703232 -0.491924 37,000 56 523 0
2018-07-19 16:33:42 GMT 35.692245 -0.512180 37,000 56 522 -64
2018-07-19 16:33:32 GMT 35.679016 -0.536671 37,000 56 523 0
2018-07-19 16:33:24 GMT 35.668076 -0.556984 37,000 56 523 0
2018-07-19 16:33:14 GMT 35.654079 -0.582743 37,000 56 523 0
2018-07-19 16:33:04 GMT 35.640812 -0.607345 37,000 56 523 0
2018-07-19 16:32:47 GMT 35.618839 -0.647843 37,000 56 522 0
2018-07-19 16:32:42 GMT 35.611954 -0.660553 37,025 56 522 0
2018-07-19 16:32:24 GMT 35.588333 -0.704155 37,000 56 522 0
2018-07-19 16:32:17 GMT 35.578899 -0.721533 37,000 56 522 0
2018-07-19 16:32:11 GMT 35.570332 -0.737311 37,000 56 522 0
2018-07-19 16:32:01 GMT 35.557392 -0.761095 37,000 56 521 0
2018-07-19 16:31:51 GMT 35.544125 -0.785464 37,000 56 521 0
2018-07-19 16:31:41 GMT 35.529785 -0.811761 37,000 56 521 0
2018-07-19 16:31:30 GMT 35.515778 -0.837479 37,000 56 520 0
2018-07-19 16:31:20 GMT 35.502228 -0.862312 37,000 56 520 0
2018-07-19 16:31:10 GMT 35.488167 -0.888081 37,000 56 520 0
2018-07-19 16:30:58 GMT 35.472839 -0.916157 37,000 56 520 -64
2018-07-19 16:30:48 GMT 35.459976 -0.939674 37,000 56 519 -64
2018-07-19 16:30:38 GMT 35.446381 -0.964565 37,000 56 519 0
2018-07-19 16:30:28 GMT 35.432190 -0.990543 37,000 56 519 0
2018-07-19 16:30:18 GMT 35.419052 -1.014519 37,000 56 519 0
2018-07-19 16:30:07 GMT 35.404419 -1.041247 37,000 56 520 0
2018-07-19 16:29:56 GMT 35.390121 -1.067333 37,000 56 520 0
2018-07-19 16:29:46 GMT 35.375652 -1.093724 37,000 56 520 0
2018-07-19 16:29:35 GMT 35.361732 -1.118969 37,000 56 520 0
2018-07-19 16:29:24 GMT 35.346771 -1.146126 37,000 56 520 0
2018-07-19 16:29:14 GMT 35.333496 -1.170216 37,000 56 520 0
2018-07-19 16:29:05 GMT 35.320404 -1.193905 37,000 56 520 0
2018-07-19 16:28:53 GMT 35.304844 -1.222171 37,000 56 519 0
2018-07-19 16:28:43 GMT 35.291576 -1.246247 37,000 56 519 64
2018-07-19 16:28:33 GMT 35.278587 -1.269739 37,000 56 519 0
2018-07-19 16:28:22 GMT 35.263275 -1.297531 37,000 56 519 0
2018-07-19 16:28:13 GMT 35.250656 -1.320346 37,000 56 519 0
2018-07-19 16:28:01 GMT 35.235668 -1.347520 37,000 56 519 -64
2018-07-19 16:27:51 GMT 35.222214 -1.371803 37,000 56 518 0
2018-07-19 16:27:41 GMT 35.207474 -1.398403 37,000 56 519 -64
2018-07-19 16:27:30 GMT 35.193649 -1.423458 37,000 56 519 0
2018-07-19 16:27:21 GMT 35.180969 -1.446304 37,000 56 518 -64
2018-07-19 16:27:10 GMT 35.166458 -1.472560 37,000 56 518 0
2018-07-19 16:27:00 GMT 35.152588 -1.497504 37,000 55 519 0
2018-07-19 16:26:50 GMT 35.139175 -1.521719 37,025 55 519 0
2018-07-19 16:26:36 GMT 35.120316 -1.555518 37,000 55 519 64
2018-07-19 16:26:29 GMT 35.111050 -1.572189 37,000 55 519 64
2018-07-19 16:26:17 GMT 35.094707 -1.601601 37,000 55 519 64
2018-07-19 16:26:06 GMT 35.080719 -1.626761 37,000 55 519 0
2018-07-19 16:25:58 GMT 35.069458 -1.646996 37,000 55 518 0
2018-07-19 16:25:47 GMT 35.054905 -1.673069 37,000 55 518 0
2018-07-19 16:25:36 GMT 35.039749 -1.700190 37,000 55 518 0
2018-07-19 16:24:45 GMT 34.971298 -1.822414 37,000 55 517 0
2018-07-19 16:22:58 GMT 34.826385 -2.080844 37,000 55 518 64
2018-07-19 16:22:55 GMT 34.822750 -2.087917 37,000 59 519 0
2018-07-19 16:20:39 GMT 34.733643 -2.466431 37,000 77 513 0
2018-07-19 16:20:33 GMT 34.730904 -2.481022 37,000 77 513 -64
2018-07-19 16:20:23 GMT 34.725410 -2.510433 37,000 77 513 0
2018-07-19 16:20:17 GMT 34.722477 -2.526169 37,000 77 513 0
2018-07-19 16:20:12 GMT 34.719452 -2.542362 37,000 77 513 0
2018-07-19 16:20:03 GMT 34.714691 -2.567662 37,000 77 513 -64
2018-07-19 16:19:58 GMT 34.712082 -2.581619 37,025 77 513 -64
2018-07-19 16:19:51 GMT 34.708790 -2.598896 37,025 77 513 0
2018-07-19 16:19:41 GMT 34.703297 -2.628078 37,000 77 513 64
2018-07-19 16:19:35 GMT 34.699898 -2.646046 37,000 77 513 64
2018-07-19 16:19:30 GMT 34.697388 -2.659588 37,000 77 513 64
2018-07-19 16:19:19 GMT 34.691471 -2.690849 37,000 77 513 64
2018-07-19 16:19:08 GMT 34.685944 -2.720237 37,000 77 515 0
2018-07-19 16:18:58 GMT 34.680267 -2.750169 37,000 77 515 0
2018-07-19 16:18:48 GMT 34.674911 -2.778364 37,000 77 515 0
2018-07-19 16:18:36 GMT 34.668198 -2.813530 37,000 76 515 0
2018-07-19 16:18:29 GMT 34.664845 -2.830982 37,000 77 515 -64
2018-07-19 16:18:25 GMT 34.662415 -2.843721 37,000 77 516 -64
2018-07-19 16:18:18 GMT 34.658981 -2.861882 37,000 76 515 -64
2018-07-19 16:18:09 GMT 34.653625 -2.890021 37,025 76 515 -64
2018-07-19 16:17:58 GMT 34.648224 -2.918327 37,025 77 516 0
2018-07-19 16:17:47 GMT 34.642452 -2.948341 37,025 77 516 0
2018-07-19 16:17:43 GMT 34.640171 -2.960358 37,025 76 516 0
2018-07-19 16:17:37 GMT 34.636681 -2.978325 37,025 76 516 0
2018-07-19 16:17:26 GMT 34.630535 -3.010197 37,025 76 517 0
2018-07-19 16:17:15 GMT 34.625042 -3.038750 37,000 76 515 64
2018-07-19 16:17:10 GMT 34.622360 -3.052686 37,025 76 518 0
2018-07-19 16:17:05 GMT 34.619640 -3.066845 37,025 76 518 0
2018-07-19 16:16:55 GMT 34.613708 -3.097472 37,025 76 518 64
2018-07-19 16:16:39 GMT 34.605072 -3.142262 37,000 76 518 64
2018-07-19 16:16:35 GMT 34.602837 -3.153763 37,000 76 518 64
2018-07-19 16:15:52 GMT 34.578781 -3.278242 36,975 76 517 0
2018-07-19 16:15:34 GMT 34.569489 -3.325999 36,975 76 517 -64
2018-07-19 16:15:28 GMT 34.566513 -3.341189 36,975 76 516 -64
2018-07-19 16:15:19 GMT 34.561405 -3.367424 36,975 76 516 0
2018-07-19 16:15:06 GMT 34.554291 -3.403856 36,975 76 515 -64
2018-07-19 16:14:58 GMT 34.549805 -3.426669 37,000 76 515 64
2018-07-19 16:14:54 GMT 34.547562 -3.437992 37,000 76 515 -64
2018-07-19 16:14:48 GMT 34.544086 -3.455715 37,000 76 515 64
2018-07-19 16:14:42 GMT 34.540924 -3.471736 36,975 76 515 64
2018-07-19 16:14:34 GMT 34.536850 -3.492699 36,975 76 515 64
2018-07-19 16:14:30 GMT 34.533939 -3.507500 36,975 76 516 0
2018-07-19 16:14:23 GMT 34.530727 -3.523922 36,975 76 516 0
2018-07-19 16:14:12 GMT 34.524536 -3.555478 36,975 76 516 -64
2018-07-19 16:14:05 GMT 34.520580 -3.575535 36,975 76 516 -64
2018-07-19 16:13:57 GMT 34.516251 -3.597450 37,000 76 516 -64
2018-07-19 16:13:46 GMT 34.510208 -3.628123 37,000 76 516 0
2018-07-19 16:13:40 GMT 34.506775 -3.645387 37,000 76 516 0
2018-07-19 16:13:36 GMT 34.504715 -3.655645 37,000 76 516 0
2018-07-19 16:13:31 GMT 34.501373 -3.672629 37,000 76 516 0
2018-07-19 16:13:26 GMT 34.498993 -3.684568 37,000 76 516 0
2018-07-19 16:13:21 GMT 34.495377 -3.702617 37,000 76 516 0
2018-07-19 16:13:15 GMT 34.492554 -3.716812 37,000 76 516 0
2018-07-19 16:13:05 GMT 34.486954 -3.745217 37,000 76 516 0
2018-07-19 16:13:01 GMT 34.484665 -3.756764 37,000 76 516 0
2018-07-19 16:12:56 GMT 34.481895 -3.770657 37,000 76 516 0
2018-07-19 16:12:50 GMT 34.478497 -3.787708 37,000 76 515 64
2018-07-19 16:12:44 GMT 34.474686 -3.806931 37,000 76 516 0
2018-07-19 16:12:38 GMT 34.471298 -3.823859 37,000 76 517 0
2018-07-19 16:12:31 GMT 34.468300 -3.838806 37,000 76 517 -64
2018-07-19 16:12:21 GMT 34.462391 -3.868389 37,000 76 517 0
2018-07-19 16:12:12 GMT 34.457520 -3.892860 37,000 76 517 0
2018-07-19 16:12:09 GMT 34.455730 -3.901577 37,000 76 517 0
2018-07-19 16:11:59 GMT 34.449921 -3.930639 37,000 76 517 64
2018-07-19 16:11:50 GMT 34.444374 -3.958225 37,000 76 517 0
2018-07-19 16:11:41 GMT 34.439857 -3.980656 37,000 76 517 0
2018-07-19 16:11:38 GMT 34.438477 -3.987477 37,000 76 517 0
2018-07-19 16:11:30 GMT 34.433716 -4.011243 37,000 76 516 64
2018-07-19 16:11:25 GMT 34.430920 -4.025173 37,000 76 516 -64
2018-07-19 16:11:16 GMT 34.425110 -4.054235 37,025 76 516 -64
2018-07-19 16:11:05 GMT 34.419514 -4.082050 37,025 76 513 64
2018-07-19 16:10:53 GMT 34.412430 -4.117239 36,975 76 514 128
2018-07-19 16:10:50 GMT 34.411240 -4.123068 36,975 76 514 128
2018-07-19 16:10:32 GMT 34.401215 -4.172619 36,825 76 512 640
2018-07-19 16:10:29 GMT 34.399544 -4.180813 36,825 76 512 640
2018-07-19 16:10:18 GMT 34.392933 -4.213257 36,700 76 511 704
2018-07-19 16:10:07 GMT 34.386883 -4.242954 36,575 76 510 576
2018-07-19 16:09:56 GMT 34.380661 -4.273513 36,475 76 509 896
2018-07-19 16:09:53 GMT 34.379292 -4.280262 36,450 76 509 1024
2018-07-19 16:09:16 GMT 34.358368 -4.382872 35,525 76 521 0
2018-07-19 16:09:08 GMT 34.353085 -4.408779 35,250 76 521 0
2018-07-19 16:08:44 GMT 34.339306 -4.475956 35,000 76 521 0
2018-07-19 16:08:34 GMT 34.333485 -4.504280 35,000 76 521 0
2018-07-19 16:08:23 GMT 34.327202 -4.535007 35,000 76 522 0
2018-07-19 16:08:10 GMT 34.319870 -4.570873 35,000 76 522 0
2018-07-19 16:08:02 GMT 34.315109 -4.593967 35,000 76 522 0
2018-07-19 16:07:58 GMT 34.312866 -4.605009 35,000 76 522 0
2018-07-19 16:07:48 GMT 34.307281 -4.631914 35,000 75 520 0
2018-07-19 16:07:37 GMT 34.300526 -4.664669 35,000 75 518 64
2018-07-19 16:07:33 GMT 34.298199 -4.675655 35,000 75 516 128
2018-07-19 16:07:21 GMT 34.291264 -4.709015 34,950 75 514 320
2018-07-19 16:07:10 GMT 34.284988 -4.739143 34,900 75 511 384
2018-07-19 16:07:00 GMT 34.279083 -4.767562 34,800 76 510 1216
2018-07-19 16:06:50 GMT 34.273682 -4.793570 34,350 75 511 1600
2018-07-19 16:06:42 GMT 34.268265 -4.819450 34,350 75 511 1600
2018-07-19 16:06:38 GMT 34.266678 -4.827202 34,275 75 512 1216
2018-07-19 16:06:33 GMT 34.263611 -4.841652 34,175 75 512 896
2018-07-19 16:06:29 GMT 34.261375 -4.852409 34,125 75 512 896
2018-07-19 16:06:24 GMT 34.257607 -4.870548 34,050 75 512 704
2018-07-19 16:06:20 GMT 34.255875 -4.878995 34,000 75 511 704
2018-07-19 16:06:13 GMT 34.252300 -4.896297 33,925 75 511 832
2018-07-19 16:06:09 GMT 34.249832 -4.907970 33,825 75 511 1856
2018-07-19 16:06:06 GMT 34.247505 -4.919243 33,750 75 510 1728
2018-07-19 16:06:03 GMT 34.245712 -4.927648 33,675 75 510 1856
2018-07-19 16:05:59 GMT 34.243698 -4.937233 33,525 75 511 1920
2018-07-19 16:05:55 GMT 34.241318 -4.948444 33,450 75 512 1920
2018-07-19 16:05:52 GMT 34.239761 -4.955843 33,375 75 513 1792
2018-07-19 16:05:47 GMT 34.236752 -4.970169 33,225 75 515 1152
2018-07-19 16:05:41 GMT 34.233398 -4.986191 33,100 75 515 1152
2018-07-19 16:05:35 GMT 34.230141 -5.001755 33,000 75 515 1024
2018-07-19 16:05:30 GMT 34.227127 -5.016100 32,925 75 515 1088
2018-07-19 16:05:20 GMT 34.220993 -5.045359 32,700 75 516 1600
2018-07-19 16:05:08 GMT 34.214310 -5.077141 32,425 75 518 1280
2018-07-19 16:04:58 GMT 34.207935 -5.107498 32,200 75 518 1152
2018-07-19 16:04:46 GMT 34.201126 -5.139808 32,000 75 517 896
2018-07-19 16:04:38 GMT 34.196110 -5.163460 31,775 75 517 1088
2018-07-19 16:04:33 GMT 34.193176 -5.177250 31,775 75 517 1088
2018-07-19 16:04:26 GMT 34.189133 -5.196421 31,675 75 515 896
2018-07-19 16:04:15 GMT 34.182610 -5.227261 31,525 75 513 896
2018-07-19 16:04:04 GMT 34.176224 -5.257238 31,350 75 512 1088
2018-07-19 16:03:54 GMT 34.170364 -5.284536 31,175 75 512 1216
2018-07-19 16:03:48 GMT 34.166840 -5.301015 31,075 75 512 1344
2018-07-19 16:03:43 GMT 34.163803 -5.315208 30,950 75 512 1344
2018-07-19 16:03:33 GMT 34.157410 -5.345129 30,725 75 512 1408
2018-07-19 16:03:24 GMT 34.152512 -5.367998 30,525 75 512 1216
2018-07-19 16:03:20 GMT 34.149605 -5.381527 30,450 75 512 1216
2018-07-19 16:03:11 GMT 34.144226 -5.406675 30,275 75 512 1344
2018-07-19 16:03:03 GMT 34.140202 -5.425644 30,100 75 512 1472
2018-07-19 16:02:52 GMT 34.133835 -5.455441 29,850 75 512 1536
2018-07-19 16:02:42 GMT 34.127399 -5.485497 29,600 75 514 1664
2018-07-19 16:02:39 GMT 34.125164 -5.495968 29,500 75 515 1664
2018-07-19 16:02:30 GMT 34.120468 -5.517827 29,275 75 516 1536
2018-07-19 16:02:27 GMT 34.118927 -5.524921 29,225 75 516 1472
2018-07-19 16:02:20 GMT 34.114517 -5.545573 29,050 75 516 1408
2018-07-19 16:02:09 GMT 34.107941 -5.576477 28,800 75 517 1408
2018-07-19 16:01:58 GMT 34.101425 -5.606783 28,550 75 517 1472
2018-07-19 16:01:52 GMT 34.098038 -5.622309 28,425 75 517 1600
2018-07-19 16:01:42 GMT 34.091629 -5.651905 28,175 75 518 1536
2018-07-19 16:01:31 GMT 34.084763 -5.685201 27,875 76 520 1600
2018-07-19 16:01:13 GMT 34.076614 -5.734527 27,450 80 520 1216
2018-07-19 16:01:03 GMT 34.072979 -5.760841 27,250 80 520 1216
2018-07-19 16:00:55 GMT 34.069336 -5.787553 27,100 80 520 1024
2018-07-19 16:00:43 GMT 34.065159 -5.818119 26,925 80 519 1024
2018-07-19 16:00:32 GMT 34.060867 -5.849267 26,700 80 519 1216
2018-07-19 16:00:22 GMT 34.056267 -5.882549 26,475 80 519 1024
2018-07-19 16:00:11 GMT 34.052589 -5.909214 26,350 80 517 1024
2018-07-19 16:00:00 GMT 34.048233 -5.940745 26,175 80 516 896
2018-07-19 15:59:50 GMT 34.044388 -5.968715 26,000 80 515 1088
2018-07-19 15:59:40 GMT 34.040176 -5.998871 25,300 80 472 640
2018-07-19 15:59:29 GMT 34.036064 -6.028633 25,700 80 511 576
2018-07-19 15:59:18 GMT 34.031799 -6.059240 25,625 80 507 384
2018-07-19 15:59:07 GMT 34.027592 -6.089230 25,575 80 500 320
2018-07-19 15:58:57 GMT 34.023193 -6.120786 25,525 80 496 320
2018-07-19 15:58:44 GMT 34.018661 -6.153128 25,450 80 489 448
2018-07-19 15:58:35 GMT 34.015209 -6.177692 25,375 80 484 448
2018-07-19 15:58:31 GMT 34.013718 -6.188450 25,375 80 484 448
2018-07-19 15:58:25 GMT 34.011429 -6.205089 25,325 80 478 192
2018-07-19 15:58:14 GMT 34.007584 -6.232555 25,275 80 472 704
2018-07-19 15:58:02 GMT 34.003010 -6.265125 25,025 80 469 1664
2018-07-19 15:57:53 GMT 33.999710 -6.288384 24,775 80 468 1152
2018-07-19 15:57:41 GMT 33.995361 -6.318764 24,525 80 467 1152
2018-07-19 15:57:30 GMT 33.991280 -6.347008 24,300 80 464 1728
2018-07-19 15:57:21 GMT 33.988068 -6.369324 24,025 80 464 1984
2018-07-19 15:57:10 GMT 33.984100 -6.397126 23,700 80 463 1536
2018-07-19 15:56:59 GMT 33.980339 -6.423454 23,425 80 461 896
2018-07-19 15:56:49 GMT 33.976410 -6.451161 23,275 80 457 1280
2018-07-19 15:56:38 GMT 33.972794 -6.477057 23,000 80 455 2176
2018-07-19 15:56:27 GMT 33.968933 -6.503963 22,600 79 457 2432
2018-07-19 15:56:17 GMT 33.964050 -6.532381 21,875 76 457 1600
2018-07-19 15:56:06 GMT 33.958973 -6.558437 21,925 76 456 1664
2018-07-19 15:55:55 GMT 33.953526 -6.584530 21,700 74 454 1536
2018-07-19 15:55:45 GMT 33.947021 -6.611303 21,350 72 454 2432
2018-07-19 15:55:34 GMT 33.940121 -6.636257 20,975 71 455 2112
2018-07-19 15:55:23 GMT 33.932812 -6.661720 20,625 70 452 1984
2018-07-19 15:55:12 GMT 33.925369 -6.686694 20,250 69 451 2240
2018-07-19 15:55:02 GMT 33.916534 -6.710909 19,800 52 443 2112
2018-07-19 15:54:58 GMT 33.912964 -6.718588 19,725 58 453 2304
2018-07-19 15:54:50 GMT 33.903305 -6.735852 19,425 53 452 1728
2018-07-19 15:54:39 GMT 33.889519 -6.757851 19,125 52 448 1792
2018-07-19 15:54:31 GMT 33.878540 -6.775257 18,800 52 444 2240
2018-07-19 15:54:28 GMT 33.875748 -6.779629 18,800 52 444 2240
2018-07-19 15:54:20 GMT 33.864983 -6.796474 18,400 52 442 2368
2018-07-19 15:54:17 GMT 33.862331 -6.800594 18,400 52 442 2368
2018-07-19 15:54:07 GMT 33.849342 -6.820736 18,075 52 440 1984
2018-07-19 15:53:58 GMT 33.838303 -6.837924 17,775 52 437 2112
2018-07-19 15:53:48 GMT 33.825348 -6.858159 17,425 52 434 2368
2018-07-19 15:53:37 GMT 33.811707 -6.879403 16,950 52 433 2688
2018-07-19 15:53:26 GMT 33.798843 -6.899414 16,525 52 433 2432
2018-07-19 15:53:15 GMT 33.785564 -6.919899 16,100 52 431 2624
2018-07-19 15:53:05 GMT 33.772671 -6.939697 15,675 51 430 2688
2018-07-19 15:52:54 GMT 33.759338 -6.960175 15,225 51 429 2432
2018-07-19 15:52:44 GMT 33.746181 -6.980267 14,850 51 426 2240
2018-07-19 15:52:33 GMT 33.732788 -7.000645 14,450 51 424 2304
2018-07-19 15:52:21 GMT 33.718903 -7.021694 14,025 51 420 2304
2018-07-19 15:52:11 GMT 33.707127 -7.039433 13,675 51 417 2368
2018-07-19 15:52:00 GMT 33.694107 -7.059052 13,250 51 414 2560
2018-07-19 15:51:50 GMT 33.681519 -7.077998 12,825 51 413 2624
2018-07-19 15:51:40 GMT 33.668999 -7.096825 12,425 51 411 2304
2018-07-19 15:51:29 GMT 33.656387 -7.115777 12,025 51 407 2368
2018-07-19 15:51:18 GMT 33.643570 -7.135116 11,550 51 405 3264
2018-07-19 15:51:07 GMT 33.631618 -7.153072 11,025 51 407 3136
2018-07-19 15:50:56 GMT 33.618027 -7.173456 10,550 51 406 2048
2018-07-19 15:50:46 GMT 33.606491 -7.190664 10,225 51 401 2304
2018-07-19 15:50:35 GMT 33.593910 -7.209377 9,825 51 397 2688
2018-07-19 15:50:25 GMT 33.581852 -7.227345 9,375 51 396 2688
2018-07-19 15:50:15 GMT 33.569366 -7.246044 8,950 51 395 2496
2018-07-19 15:50:04 GMT 33.557556 -7.263644 8,525 51 394 2752
2018-07-19 15:49:54 GMT 33.545731 -7.281246 8,100 51 394 2368
2018-07-19 15:49:43 GMT 33.533859 -7.298902 7,775 51 389 1920
2018-07-19 15:49:33 GMT 33.521759 -7.317114 7,425 51 384 2176
2018-07-19 15:49:22 GMT 33.510498 -7.334747 7,050 54 381 2624
2018-07-19 15:49:12 GMT 33.500572 -7.353385 6,625 62 378 2176
2018-07-19 15:49:01 GMT 33.492939 -7.373564 6,350 68 370 1216
2018-07-19 15:48:50 GMT 33.486282 -7.393469 6,175 68 359 1088
2018-07-19 15:48:39 GMT 33.479813 -7.413249 6,000 68 345 960
2018-07-19 15:48:28 GMT 33.473740 -7.432086 5,850 69 331 1152
2018-07-19 15:48:19 GMT 33.468201 -7.449829 5,675 69 316 1088
2018-07-19 15:48:07 GMT 33.462868 -7.466779 5,500 69 301 1024
2018-07-19 15:47:56 GMT 33.457214 -7.484106 5,150 68 290 2368
2018-07-19 15:47:45 GMT 33.451973 -7.499738 4,750 67 282 2496
2018-07-19 15:47:36 GMT 33.446899 -7.514704 4,375 68 275 2304
2018-07-19 15:47:25 GMT 33.442196 -7.529166 3,950 69 268 2816
2018-07-19 15:47:14 GMT 33.437576 -7.543542 3,575 68 258 1600
2018-07-19 15:47:04 GMT 33.433090 -7.557220 3,300 68 241 1536
2018-07-19 15:46:53 GMT 33.428883 -7.569692 3,150 67 218 832
2018-07-19 15:46:43 GMT 33.424973 -7.580454 3,050 63 196 512
2018-07-19 15:46:33 GMT 33.420135 -7.589795 2,900 48 179 1216
2018-07-19 15:46:21 GMT 33.413147 -7.596373 2,700 22 167 1280
2018-07-19 15:46:12 GMT 33.405327 -7.598559 2,375 359 165 1792

Making use of Plane Finder data

You are free to use the raw flight data, aircraft information and images provided in this report for your own purposes provided the data is correctly attributed to Plane Finder. We ask that you please credit Plane Finder and link to planefinder.net in close proximity to the content.

Optionally one of the following logos (no smaller then 150x24px) can be used and must link to planefinder.net

Embedding the Plane Finder map

You are welcome to embed the Plane Finder playback map on your website to offer visitors a more interactive experience. We suggest using the following HTML code:

<iframe src="//planefinder.net/data/report/AZ875-EI-DTN-7700-squawk-2018-07-19/map" width="800" height="600" seamless="seamless"></iframe>

Where our data comes from

Plane Finder has a global network of data feeds and antenna radars that receive data broadcast directly from aircraft. The primary technologies used are ADS-B and MLAT. We also show feeds from the FAA and a FLARM glider feed.

Click here to find out more about the Plane Finder network.

How we collect our data